createdAt,value
2022-12-25T00:01:06.766Z,18.83
2022-12-25T00:03:33.897Z,20.30
2022-12-25T00:06:00.781Z,18.20
2022-12-25T00:08:27.428Z,24.97
2022-12-25T00:11:05.381Z,16.83
2022-12-25T00:13:32.632Z,24.33
2022-12-25T00:15:59.594Z,18.53
2022-12-25T00:18:26.538Z,25.57
2022-12-25T00:21:01.821Z,17.73
2022-12-25T00:23:28.800Z,16.53
2022-12-25T00:25:55.890Z,14.53
2022-12-25T00:28:23.269Z,22.20
2022-12-25T00:30:50.701Z,21.10
2022-12-25T00:33:17.755Z,20.37
2022-12-25T00:35:44.628Z,20.70
2022-12-25T00:38:11.353Z,17.27
2022-12-25T00:40:44.290Z,16.67
2022-12-25T00:43:11.042Z,14.07
2022-12-25T00:45:37.797Z,18.93
2022-12-25T00:48:05.084Z,17.10
2022-12-25T00:50:31.877Z,15.73
2022-12-25T00:52:58.590Z,21.73
2022-12-25T00:55:25.331Z,18.70
2022-12-25T00:57:52.026Z,12.37
2022-12-25T01:00:19.039Z,12.13
2022-12-25T01:02:45.870Z,15.50
2022-12-25T01:05:12.675Z,13.87
2022-12-25T01:07:39.346Z,12.30
2022-12-25T01:10:25.083Z,17.47
2022-12-25T01:12:52.448Z,14.77
2022-12-25T01:15:19.830Z,13.83
2022-12-25T01:17:46.905Z,18.93
2022-12-25T01:20:15.908Z,13.37
2022-12-25T01:22:43.525Z,18.53
2022-12-25T01:25:12.162Z,17.60
2022-12-25T01:27:41.017Z,17.13
2022-12-25T01:30:08.251Z,15.23
2022-12-25T01:32:34.930Z,20.67
2022-12-25T01:35:01.692Z,16.17
2022-12-25T01:37:28.496Z,21.47
2022-12-25T01:39:55.295Z,16.27
2022-12-25T01:42:23.691Z,14.63
2022-12-25T01:44:50.523Z,17.63
2022-12-25T01:47:18.391Z,14.90
2022-12-25T01:49:49.419Z,15.43
2022-12-25T01:52:23.906Z,10.60
2022-12-25T01:54:58.232Z,28.73
2022-12-25T01:57:30.964Z,17.37
2022-12-25T01:59:58.533Z,13.53
2022-12-25T02:02:25.927Z,9.77
2022-12-25T02:04:58.977Z,16.93
2022-12-25T02:07:28.386Z,13.37
2022-12-25T02:09:55.512Z,11.10
2022-12-25T02:12:27.927Z,11.20
2022-12-25T02:15:04.907Z,31.13
2022-12-25T02:17:54.891Z,11.97
2022-12-25T02:20:51.343Z,15.30
2022-12-25T02:23:47.354Z,13.27
2022-12-25T02:26:33.492Z,16.07
2022-12-25T02:29:21.903Z,14.57
2022-12-25T02:32:01.051Z,19.20
2022-12-25T02:34:56.700Z,19.87
2022-12-25T02:37:35.865Z,15.43
2022-12-25T02:40:38.484Z,9.10
2022-12-25T02:43:43.606Z,15.50
2022-12-25T02:46:32.891Z,16.40
2022-12-25T02:49:32.503Z,12.93
2022-12-25T02:52:23.996Z,14.67
2022-12-25T02:55:14.051Z,9.40
2022-12-25T02:58:14.754Z,11.10
2022-12-25T03:01:04.582Z,9.93
2022-12-25T03:03:55.222Z,16.83
2022-12-25T03:06:42.890Z,4.80
2022-12-25T03:09:43.176Z,10.37
2022-12-25T03:12:25.013Z,8.97
2022-12-25T03:15:10.249Z,10.07
2022-12-25T03:17:36.971Z,8.17
2022-12-25T03:20:23.317Z,11.20
2022-12-25T03:23:09.300Z,10.07
2022-12-25T03:25:54.666Z,8.53
2022-12-25T03:28:21.358Z,8.87
2022-12-25T03:31:11.924Z,6.03
2022-12-25T03:34:08.060Z,4.33
2022-12-25T03:36:45.282Z,4.73
2022-12-25T03:40:01.686Z,4.13
2022-12-25T03:42:55.197Z,4.70
2022-12-25T03:46:12.374Z,12.80
2022-12-25T03:49:03.285Z,5.70
2022-12-25T03:51:53.453Z,4.73
2022-12-25T03:54:42.713Z,8.90
2022-12-25T03:57:28.528Z,5.93
2022-12-25T04:00:14.481Z,2.37
2022-12-25T04:02:59.607Z,10.07
2022-12-25T04:05:45.067Z,7.70
2022-12-25T04:08:30.207Z,7.13
2022-12-25T04:11:15.466Z,4.33
2022-12-25T04:14:00.881Z,7.20
2022-12-25T04:16:46.359Z,7.20
2022-12-25T04:19:31.649Z,5.77
2022-12-25T04:22:17.086Z,8.60
2022-12-25T04:25:02.452Z,9.90
2022-12-25T04:27:47.716Z,3.67
2022-12-25T04:30:33.119Z,8.93
2022-12-25T04:33:18.657Z,6.70
2022-12-25T04:36:07.589Z,5.33
2022-12-25T04:38:34.748Z,3.90
2022-12-25T04:41:02.444Z,5.37
2022-12-25T04:43:29.324Z,5.90
2022-12-25T04:45:58.019Z,7.40
2022-12-25T04:48:25.417Z,9.63
2022-12-25T04:50:52.291Z,10.07
2022-12-25T04:53:19.667Z,6.10
2022-12-25T04:55:46.356Z,5.30
2022-12-25T04:58:13.076Z,6.07
2022-12-25T05:00:39.732Z,4.40
2022-12-25T05:03:06.589Z,12.20
2022-12-25T05:05:33.388Z,6.97
2022-12-25T05:08:00.040Z,4.20
2022-12-25T05:10:26.790Z,4.30
2022-12-25T05:12:53.454Z,4.70
2022-12-25T05:15:20.147Z,4.57
2022-12-25T05:17:46.800Z,7.77
2022-12-25T05:20:13.491Z,10.83
2022-12-25T05:22:42.067Z,4.77
2022-12-25T05:25:09.061Z,5.10
2022-12-25T05:27:35.765Z,6.47
2022-12-25T05:30:03.378Z,5.27
2022-12-25T05:32:31.115Z,8.40
2022-12-25T05:34:59.967Z,17.17
2022-12-25T05:37:27.066Z,4.20
2022-12-25T05:39:53.826Z,11.53
2022-12-25T05:42:20.499Z,3.63
2022-12-25T05:44:47.141Z,4.83
2022-12-25T05:47:13.817Z,6.73
2022-12-25T05:49:40.455Z,8.37
2022-12-25T05:52:07.162Z,9.43
2022-12-25T05:54:34.970Z,6.07
2022-12-25T05:57:02.062Z,11.03
2022-12-25T05:59:32.999Z,4.30
2022-12-25T06:02:00.027Z,7.53
2022-12-25T06:04:26.930Z,4.47
2022-12-25T06:06:53.790Z,8.03
2022-12-25T06:09:20.527Z,6.20
2022-12-25T06:11:47.191Z,4.93
2022-12-25T06:14:15.518Z,6.70
2022-12-25T06:16:45.037Z,6.13
2022-12-25T06:19:12.287Z,4.97
2022-12-25T06:21:38.964Z,8.80
2022-12-25T06:24:06.067Z,8.83
2022-12-25T06:26:32.820Z,6.93
2022-12-25T06:28:59.533Z,5.17
2022-12-25T06:31:26.340Z,5.03
2022-12-25T06:33:53.048Z,5.63
2022-12-25T06:36:22.882Z,7.90
2022-12-25T06:38:50.160Z,12.27
2022-12-25T06:41:25.266Z,12.40
2022-12-25T06:43:54.396Z,9.63
2022-12-25T06:46:22.689Z,8.30
2022-12-25T06:48:50.103Z,3.83
2022-12-25T06:51:21.908Z,4.00
2022-12-25T06:53:50.136Z,5.13
2022-12-25T06:56:20.057Z,9.27
2022-12-25T06:58:49.371Z,7.43
2022-12-25T07:01:21.128Z,6.97
2022-12-25T07:03:51.548Z,7.03
2022-12-25T07:06:18.394Z,6.20
2022-12-25T07:08:45.062Z,8.73
2022-12-25T07:11:12.088Z,13.00
2022-12-25T07:13:38.800Z,6.53
2022-12-25T07:16:07.799Z,13.90
2022-12-25T07:18:35.074Z,7.50
2022-12-25T07:21:16.800Z,12.60
2022-12-25T07:23:44.882Z,7.83
2022-12-25T07:26:12.946Z,7.23
2022-12-25T07:28:40.240Z,9.50
2022-12-25T07:31:13.205Z,8.03
2022-12-25T07:33:40.878Z,11.30
2022-12-25T07:36:08.001Z,9.10
2022-12-25T07:38:40.564Z,7.30
2022-12-25T07:41:11.696Z,10.73
2022-12-25T07:43:38.511Z,5.87
2022-12-25T07:46:05.687Z,4.90
2022-12-25T07:48:32.879Z,6.20
2022-12-25T07:51:02.141Z,10.43
2022-12-25T07:53:29.077Z,6.87
2022-12-25T07:56:16.565Z,12.10
2022-12-25T07:58:43.938Z,8.60
2022-12-25T08:01:20.046Z,6.87
2022-12-25T08:03:58.498Z,11.70
2022-12-25T08:06:29.923Z,5.10
2022-12-25T08:09:01.850Z,4.93
2022-12-25T08:11:28.501Z,9.20
2022-12-25T08:13:55.192Z,7.97
2022-12-25T08:16:22.254Z,5.37
2022-12-25T08:18:49.031Z,6.63
2022-12-25T08:21:16.165Z,10.63
2022-12-25T08:23:45.194Z,9.83
2022-12-25T08:26:15.589Z,11.53
2022-12-25T08:28:42.284Z,8.47
2022-12-25T08:31:17.729Z,9.10
2022-12-25T08:33:44.666Z,8.00
2022-12-25T08:36:12.480Z,8.90
2022-12-25T08:38:39.900Z,14.33
2022-12-25T08:41:06.941Z,7.77
2022-12-25T08:43:33.839Z,12.07
2022-12-25T08:46:00.946Z,11.00
2022-12-25T08:48:27.794Z,8.27
2022-12-25T08:50:54.572Z,17.27
2022-12-25T08:53:21.740Z,8.37
2022-12-25T08:55:48.734Z,14.40
2022-12-25T08:58:16.472Z,13.63
2022-12-25T09:00:43.205Z,14.37
2022-12-25T09:03:09.993Z,23.60
2022-12-25T09:05:37.618Z,12.07
2022-12-25T09:08:04.585Z,10.03
2022-12-25T09:10:31.294Z,13.47
2022-12-25T09:12:57.962Z,13.10
2022-12-25T09:15:24.641Z,5.20
2022-12-25T09:17:51.289Z,9.57
2022-12-25T09:20:18.047Z,10.33
2022-12-25T09:22:44.723Z,9.57
2022-12-25T09:25:11.837Z,11.33
2022-12-25T09:27:38.518Z,10.47
2022-12-25T09:30:07.064Z,6.60
2022-12-25T09:32:33.738Z,7.27
2022-12-25T09:35:00.417Z,7.93
2022-12-25T09:37:27.845Z,11.03
2022-12-25T09:39:54.564Z,10.73
2022-12-25T09:42:25.273Z,18.20
2022-12-25T09:45:11.491Z,16.90
2022-12-25T09:47:41.912Z,14.83
2022-12-25T09:50:17.372Z,10.10
2022-12-25T09:53:00.785Z,12.00
2022-12-25T09:55:30.695Z,9.93
2022-12-25T09:58:08.404Z,9.40
2022-12-25T10:00:40.835Z,8.57
2022-12-25T10:03:16.308Z,12.57
2022-12-25T10:06:15.568Z,9.03
2022-12-25T10:09:04.987Z,13.03
2022-12-25T10:11:58.966Z,14.00
2022-12-25T10:15:09.854Z,14.50
2022-12-25T10:17:59.225Z,10.57
2022-12-25T10:20:54.059Z,20.20
2022-12-25T10:23:32.127Z,21.00
2022-12-25T10:25:58.845Z,15.67
2022-12-25T10:28:33.809Z,13.73
2022-12-25T10:31:13.373Z,17.33
2022-12-25T10:33:40.023Z,13.27
2022-12-25T10:36:09.664Z,11.73
2022-12-25T10:38:39.361Z,10.23
2022-12-25T10:41:55.709Z,12.43
2022-12-25T10:44:26.451Z,12.60
2022-12-25T10:46:59.470Z,13.30
2022-12-25T10:49:32.712Z,12.60
2022-12-25T10:51:59.539Z,11.20
2022-12-25T10:54:35.961Z,9.27
2022-12-25T10:57:16.097Z,10.10
2022-12-25T10:59:56.826Z,12.20
2022-12-25T11:02:23.655Z,12.90
2022-12-25T11:04:52.437Z,14.63
2022-12-25T11:07:19.141Z,10.47
2022-12-25T11:10:02.706Z,12.70
2022-12-25T11:12:45.419Z,13.70
2022-12-25T11:16:04.735Z,15.60
2022-12-25T11:18:52.620Z,17.57
2022-12-25T11:21:49.822Z,12.33
2022-12-25T11:24:22.293Z,10.30
2022-12-25T11:27:01.938Z,15.70
2022-12-25T11:29:47.893Z,12.70
2022-12-25T11:32:40.198Z,15.40
2022-12-25T11:35:13.833Z,11.43
2022-12-25T11:37:51.990Z,11.03
2022-12-25T11:40:19.888Z,13.03
2022-12-25T11:43:04.114Z,14.17
2022-12-25T11:45:39.055Z,14.50
2022-12-25T11:48:18.195Z,14.23
2022-12-25T11:50:55.631Z,15.67
2022-12-25T11:53:55.201Z,13.97
2022-12-25T11:56:28.494Z,11.50
2022-12-25T11:59:01.540Z,16.33
2022-12-25T12:01:36.634Z,12.33
2022-12-25T12:04:09.339Z,13.03
2022-12-25T12:06:52.705Z,13.60
2022-12-25T12:09:43.375Z,11.07
2022-12-25T12:12:29.530Z,10.57
2022-12-25T12:15:27.518Z,11.40
2022-12-25T12:17:54.301Z,13.47
2022-12-25T12:20:27.956Z,17.90
2022-12-25T12:22:55.097Z,16.73
2022-12-25T12:25:22.405Z,14.60
2022-12-25T12:28:05.437Z,9.60
2022-12-25T12:30:35.529Z,11.23
2022-12-25T12:33:06.006Z,12.33
2022-12-25T12:35:38.754Z,9.77
2022-12-25T12:38:16.789Z,11.57
2022-12-25T12:40:58.076Z,11.03
2022-12-25T12:43:58.779Z,12.60
2022-12-25T12:46:31.389Z,13.17
2022-12-25T12:49:26.668Z,10.80
2022-12-25T12:52:06.197Z,9.40
2022-12-25T12:54:33.642Z,9.80
2022-12-25T12:57:21.680Z,8.03
2022-12-25T12:59:48.616Z,10.53
2022-12-25T13:02:27.724Z,10.67
2022-12-25T13:05:20.484Z,9.17
2022-12-25T13:07:50.058Z,9.87
2022-12-25T13:10:29.012Z,8.23
2022-12-25T13:13:02.922Z,11.10
2022-12-25T13:15:33.439Z,11.87
2022-12-25T13:18:06.858Z,10.03
2022-12-25T13:20:36.600Z,11.60
2022-12-25T13:23:14.049Z,11.00
2022-12-25T13:25:40.746Z,12.73
2022-12-25T13:28:14.036Z,8.23
2022-12-25T13:30:40.816Z,11.50
2022-12-25T13:33:16.969Z,10.90
2022-12-25T13:35:44.262Z,11.53
2022-12-25T13:38:18.061Z,18.77
2022-12-25T13:41:11.623Z,10.50
2022-12-25T13:43:43.546Z,9.70
2022-12-25T13:46:15.896Z,7.93
2022-12-25T13:48:43.010Z,9.83
2022-12-25T13:51:16.154Z,7.00
2022-12-25T13:53:43.602Z,13.00
2022-12-25T13:56:15.558Z,6.67
2022-12-25T13:58:43.308Z,6.70
2022-12-25T14:01:12.429Z,6.57
2022-12-25T14:03:45.583Z,8.20
2022-12-25T14:06:20.105Z,7.00
2022-12-25T14:08:48.023Z,7.30
2022-12-25T14:11:16.532Z,8.07
2022-12-25T14:13:45.483Z,6.03
2022-12-25T14:16:17.058Z,11.23
2022-12-25T14:18:55.513Z,7.50
2022-12-25T14:21:34.369Z,7.37
2022-12-25T14:24:01.386Z,12.03
2022-12-25T14:26:31.505Z,12.13
2022-12-25T14:29:12.200Z,8.60
2022-12-25T14:31:43.891Z,9.50
2022-12-25T14:34:18.564Z,9.80
2022-12-25T14:36:45.889Z,6.53
2022-12-25T14:39:31.291Z,7.70
2022-12-25T14:41:58.342Z,10.53
2022-12-25T14:44:38.842Z,7.03
2022-12-25T14:47:11.641Z,9.70
2022-12-25T14:49:39.223Z,8.90
2022-12-25T14:52:28.993Z,8.00
2022-12-25T14:55:02.808Z,8.53
2022-12-25T14:57:36.976Z,6.13
2022-12-25T15:00:28.826Z,6.60
2022-12-25T15:02:57.770Z,6.27
2022-12-25T15:05:38.816Z,8.00
2022-12-25T15:08:06.282Z,6.50
2022-12-25T15:13:20.675Z,6.20
2022-12-25T15:16:10.289Z,6.73
2022-12-25T15:18:43.733Z,11.80
2022-12-25T15:21:16.796Z,8.47
2022-12-25T15:23:43.810Z,6.90
2022-12-25T15:26:13.999Z,7.70
2022-12-25T15:28:40.949Z,6.57
2022-12-25T15:31:28.478Z,7.73
2022-12-25T15:33:57.269Z,6.53
2022-12-25T15:36:24.875Z,9.40
2022-12-25T15:38:51.996Z,11.60
2022-12-25T15:42:03.288Z,9.40
2022-12-25T15:44:29.962Z,5.73
2022-12-25T15:46:57.866Z,7.27
2022-12-25T15:49:24.546Z,7.73
2022-12-25T15:51:51.250Z,8.63
2022-12-25T15:54:17.918Z,7.97
2022-12-25T15:56:53.705Z,9.90
2022-12-25T15:59:21.370Z,8.20
2022-12-25T16:01:54.208Z,5.73
2022-12-25T16:04:22.024Z,6.50
2022-12-25T16:06:49.563Z,6.73
2022-12-25T16:09:17.975Z,13.17
2022-12-25T16:11:44.666Z,7.80
2022-12-25T16:14:11.442Z,6.30
2022-12-25T16:16:38.841Z,10.50
2022-12-25T16:19:06.353Z,13.30
2022-12-25T16:21:46.691Z,13.77
2022-12-25T16:24:14.095Z,10.70
2022-12-25T16:26:41.401Z,9.40
2022-12-25T16:29:08.471Z,11.30
2022-12-25T16:31:36.696Z,19.30
2022-12-25T16:34:05.258Z,10.47
2022-12-25T16:36:32.020Z,15.67
2022-12-25T16:38:58.732Z,8.57
2022-12-25T16:41:25.367Z,10.17
2022-12-25T16:43:52.119Z,10.80
2022-12-25T16:46:21.847Z,10.53
2022-12-25T16:48:48.702Z,9.20
2022-12-25T16:51:20.864Z,9.93
2022-12-25T16:53:48.398Z,8.13
2022-12-25T16:56:17.953Z,8.90
2022-12-25T16:58:48.787Z,6.57
2022-12-25T17:01:18.758Z,8.83
2022-12-25T17:03:46.469Z,12.10
2022-12-25T17:06:20.451Z,8.63
2022-12-25T17:08:47.790Z,6.17
2022-12-25T17:11:15.407Z,6.10
2022-12-25T17:13:46.152Z,11.77
2022-12-25T17:16:28.207Z,7.87
2022-12-25T17:19:01.396Z,6.50
2022-12-25T17:21:30.171Z,9.63
2022-12-25T17:24:02.335Z,7.67
2022-12-25T17:26:31.426Z,6.43
2022-12-25T17:28:58.874Z,8.60
2022-12-25T17:31:25.597Z,9.73
2022-12-25T17:33:52.357Z,12.77
2022-12-25T17:36:21.512Z,11.17
2022-12-25T17:38:48.414Z,15.63
2022-12-25T17:41:16.487Z,11.00
2022-12-25T17:43:45.639Z,16.30
2022-12-25T17:46:24.604Z,16.40
2022-12-25T17:48:52.438Z,17.47
2022-12-25T17:51:21.438Z,15.93
2022-12-25T17:53:56.554Z,12.73
2022-12-25T17:56:24.052Z,11.80
2022-12-25T17:58:53.091Z,13.17
2022-12-25T18:01:20.571Z,13.73
2022-12-25T18:03:47.816Z,17.43
2022-12-25T18:06:17.844Z,11.63
2022-12-25T18:08:45.963Z,9.77
2022-12-25T18:11:15.443Z,12.37
2022-12-25T18:13:45.072Z,10.37
2022-12-25T18:16:13.286Z,9.90
2022-12-25T18:18:40.461Z,7.77
2022-12-25T18:21:08.353Z,14.93
2022-12-25T18:23:35.936Z,9.03
2022-12-25T18:26:05.523Z,7.20
2022-12-25T18:28:32.635Z,8.30
2022-12-25T18:30:59.729Z,10.00
2022-12-25T18:33:27.339Z,10.07
2022-12-25T18:35:58.934Z,13.27
2022-12-25T18:38:27.157Z,15.73
2022-12-25T18:40:54.153Z,14.73
2022-12-25T18:43:20.809Z,15.63
2022-12-25T18:46:08.022Z,15.23
2022-12-25T18:48:35.824Z,10.03
2022-12-25T18:51:11.650Z,11.00
2022-12-25T18:53:38.673Z,11.93
2022-12-25T18:56:15.106Z,16.67
2022-12-25T18:58:42.408Z,15.67
2022-12-25T19:01:22.331Z,19.73
2022-12-25T19:03:50.232Z,19.67
2022-12-25T19:06:27.992Z,22.70
2022-12-25T19:08:55.783Z,26.23
2022-12-25T19:11:23.712Z,23.07
2022-12-25T19:13:50.410Z,24.47
2022-12-25T19:16:17.709Z,23.43
2022-12-25T19:18:44.433Z,16.13
2022-12-25T19:21:11.399Z,14.43
2022-12-25T19:23:38.629Z,18.93
2022-12-25T19:26:07.357Z,18.00
2022-12-25T19:28:34.494Z,22.20
2022-12-25T19:31:01.811Z,27.13
2022-12-25T19:33:31.362Z,33.60
2022-12-25T19:36:02.265Z,32.13
2022-12-25T19:38:29.111Z,29.40
2022-12-25T19:41:01.868Z,26.77
2022-12-25T19:43:31.086Z,38.60
2022-12-25T19:45:58.087Z,31.13
2022-12-25T19:48:25.516Z,54.73
2022-12-25T19:50:52.306Z,157.27
2022-12-25T19:53:21.445Z,87.07
2022-12-25T19:55:48.070Z,43.10
2022-12-25T19:58:15.115Z,65.10
2022-12-25T20:00:41.954Z,76.83
2022-12-25T20:03:09.491Z,39.37
2022-12-25T20:05:36.749Z,25.10
2022-12-25T20:08:03.913Z,11.57
2022-12-25T20:10:30.617Z,26.30
2022-12-25T20:12:57.414Z,12.90
2022-12-25T20:15:24.273Z,23.33
2022-12-25T20:17:51.040Z,11.10
2022-12-25T20:20:17.728Z,13.03
2022-12-25T20:22:44.486Z,11.00
2022-12-25T20:25:11.871Z,15.23
2022-12-25T20:27:38.511Z,10.70
2022-12-25T20:30:05.777Z,11.80
2022-12-25T20:32:32.484Z,13.00
2022-12-25T20:34:59.232Z,9.33
2022-12-25T20:37:25.993Z,10.60
2022-12-25T20:39:52.696Z,12.30
2022-12-25T20:42:20.340Z,8.43
2022-12-25T20:44:47.158Z,10.87
2022-12-25T20:47:13.899Z,10.33
2022-12-25T20:49:40.620Z,9.80
2022-12-25T20:52:07.785Z,8.63
2022-12-25T20:54:34.789Z,10.80
2022-12-25T20:57:01.544Z,11.17
2022-12-25T20:59:33.475Z,9.17
2022-12-25T21:02:03.925Z,9.63
2022-12-25T21:04:30.708Z,12.27
2022-12-25T21:06:57.359Z,11.63
2022-12-25T21:09:24.027Z,11.60
2022-12-25T21:11:50.664Z,8.70
2022-12-25T21:14:17.366Z,12.10
2022-12-25T21:16:44.693Z,17.73
2022-12-25T21:19:11.527Z,17.53
2022-12-25T21:21:42.668Z,17.50
2022-12-25T21:24:10.681Z,15.00
2022-12-25T21:26:39.104Z,11.67
2022-12-25T21:29:07.763Z,15.10
2022-12-25T21:31:54.440Z,12.87
2022-12-25T21:34:21.117Z,14.93
2022-12-25T21:36:48.311Z,14.93
2022-12-25T21:39:15.581Z,17.73
2022-12-25T21:41:42.454Z,18.20
2022-12-25T21:44:10.730Z,16.10
2022-12-25T21:46:37.493Z,13.40
2022-12-25T21:49:04.258Z,14.80
2022-12-25T21:51:52.492Z,15.03
2022-12-25T21:54:21.415Z,13.50
2022-12-25T21:56:49.089Z,17.97
2022-12-25T21:59:21.374Z,9.37
2022-12-25T22:01:49.530Z,11.20
2022-12-25T22:04:18.021Z,11.10
2022-12-25T22:07:03.907Z,6.37
2022-12-25T22:09:31.028Z,11.13
2022-12-25T22:12:16.860Z,7.60
2022-12-25T22:14:54.276Z,7.80
2022-12-25T22:17:43.278Z,7.73
2022-12-25T22:20:16.359Z,7.67
2022-12-25T22:22:43.714Z,8.93
2022-12-25T22:25:11.319Z,5.03
2022-12-25T22:27:40.119Z,8.10
2022-12-25T22:30:09.423Z,5.07
2022-12-25T22:32:36.386Z,6.77
2022-12-25T22:35:03.869Z,4.73
2022-12-25T22:37:30.684Z,5.80
2022-12-25T22:39:57.929Z,4.80
2022-12-25T22:42:24.615Z,4.73
2022-12-25T22:44:51.337Z,5.37
2022-12-25T22:47:18.217Z,5.03
2022-12-25T22:49:45.101Z,3.77
2022-12-25T22:52:11.772Z,4.07
2022-12-25T22:54:38.835Z,5.87
2022-12-25T22:57:05.728Z,4.00
2022-12-25T22:59:33.335Z,6.27
2022-12-25T23:02:01.076Z,9.20
2022-12-25T23:04:29.072Z,3.50
2022-12-25T23:06:56.471Z,3.73
2022-12-25T23:09:27.828Z,9.40
2022-12-25T23:11:57.413Z,4.20
2022-12-25T23:14:41.769Z,5.03
2022-12-25T23:17:31.487Z,3.77
2022-12-25T23:20:18.186Z,3.63
2022-12-25T23:23:04.599Z,6.40
2022-12-25T23:25:50.287Z,4.40
2022-12-25T23:28:40.042Z,3.43
2022-12-25T23:31:07.449Z,3.67
2022-12-25T23:33:34.333Z,5.30
2022-12-25T23:36:01.012Z,7.10
2022-12-25T23:38:27.811Z,5.70
2022-12-25T23:40:54.485Z,2.97
2022-12-25T23:43:21.182Z,8.40
2022-12-25T23:45:47.826Z,4.23
2022-12-25T23:48:14.563Z,8.40
2022-12-25T23:50:41.291Z,2.77
2022-12-25T23:53:07.960Z,5.50
2022-12-25T23:55:34.670Z,4.60
2022-12-25T23:58:01.443Z,3.77
